sensor_id;sensor_type;location;lat;lon;timestamp;pressure;altitude;pressure_sealevel;temperature;humidity
9746;BME280;4912;50.836;12.958;2022-10-12T00:01:33;98725.06;;;9.36;83.06
9746;BME280;4912;50.836;12.958;2022-10-12T00:04:03;98726.72;;;9.34;82.95
9746;BME280;4912;50.836;12.958;2022-10-12T00:06:33;98728.69;;;9.33;82.79
9746;BME280;4912;50.836;12.958;2022-10-12T00:09:04;98724.38;;;9.32;82.87
9746;BME280;4912;50.836;12.958;2022-10-12T00:11:37;98724.25;;;9.23;83.05
9746;BME280;4912;50.836;12.958;2022-10-12T00:14:08;98719.59;;;9.20;83.52
9746;BME280;4912;50.836;12.958;2022-10-12T00:16:39;98724.34;;;9.20;83.45
9746;BME280;4912;50.836;12.958;2022-10-12T00:19:11;98732.72;;;9.16;83.31
9746;BME280;4912;50.836;12.958;2022-10-12T00:21:41;98720.72;;;9.23;83.18
9746;BME280;4912;50.836;12.958;2022-10-12T00:24:12;98722.59;;;9.26;82.83
9746;BME280;4912;50.836;12.958;2022-10-12T00:26:44;98724.91;;;9.27;82.32
9746;BME280;4912;50.836;12.958;2022-10-12T00:29:16;98721.31;;;9.30;82.14
9746;BME280;4912;50.836;12.958;2022-10-12T00:31:47;98723.38;;;9.26;82.46
9746;BME280;4912;50.836;12.958;2022-10-12T00:34:19;98726.25;;;9.23;82.08
9746;BME280;4912;50.836;12.958;2022-10-12T00:36:50;98722.03;;;9.18;81.74
9746;BME280;4912;50.836;12.958;2022-10-12T00:39:20;98721.00;;;9.12;81.61
9746;BME280;4912;50.836;12.958;2022-10-12T00:41:54;98723.41;;;9.10;81.62
9746;BME280;4912;50.836;12.958;2022-10-12T00:44:39;98722.41;;;9.04;81.90
9746;BME280;4912;50.836;12.958;2022-10-12T00:47:22;98721.38;;;8.98;82.16
9746;BME280;4912;50.836;12.958;2022-10-12T00:49:58;98727.53;;;8.89;82.54
9746;BME280;4912;50.836;12.958;2022-10-12T00:52:36;98720.88;;;8.87;83.04
9746;BME280;4912;50.836;12.958;2022-10-12T00:55:13;98721.75;;;8.84;83.28
9746;BME280;4912;50.836;12.958;2022-10-12T00:57:52;98724.06;;;8.85;83.27
9746;BME280;4912;50.836;12.958;2022-10-12T01:00:23;98724.06;;;8.85;83.41
9746;BME280;4912;50.836;12.958;2022-10-12T01:02:53;98716.69;;;8.82;83.57
9746;BME280;4912;50.836;12.958;2022-10-12T01:05:24;98715.47;;;8.83;83.25
9746;BME280;4912;50.836;12.958;2022-10-12T01:07:55;98713.22;;;8.78;83.02
9746;BME280;4912;50.836;12.958;2022-10-12T01:10:26;98708.22;;;8.73;83.74
9746;BME280;4912;50.836;12.958;2022-10-12T01:12:59;98713.84;;;8.70;84.09
9746;BME280;4912;50.836;12.958;2022-10-12T01:15:33;98714.94;;;8.72;83.80
9746;BME280;4912;50.836;12.958;2022-10-12T01:18:09;98707.44;;;8.73;83.47
9746;BME280;4912;50.836;12.958;2022-10-12T01:20:51;98706.34;;;8.70;83.89
9746;BME280;4912;50.836;12.958;2022-10-12T01:27:11;98703.66;;;8.67;83.72
9746;BME280;4912;50.836;12.958;2022-10-12T01:30:20;98711.25;;;8.62;83.60
9746;BME280;4912;50.836;12.958;2022-10-12T01:33:06;98708.50;;;8.62;83.39
9746;BME280;4912;50.836;12.958;2022-10-12T01:35:53;98713.59;;;8.64;83.56
9746;BME280;4912;50.836;12.958;2022-10-12T01:38:35;98707.28;;;8.63;83.38
9746;BME280;4912;50.836;12.958;2022-10-12T01:41:17;98708.94;;;8.61;82.95
9746;BME280;4912;50.836;12.958;2022-10-12T01:43:55;98700.41;;;8.55;82.55
9746;BME280;4912;50.836;12.958;2022-10-12T01:46:41;98700.91;;;8.50;82.65
9746;BME280;4912;50.836;12.958;2022-10-12T01:49:15;98697.81;;;8.48;82.84
9746;BME280;4912;50.836;12.958;2022-10-12T01:52:06;98701.44;;;8.45;82.96
9746;BME280;4912;50.836;12.958;2022-10-12T01:55:16;98709.38;;;8.43;82.97
9746;BME280;4912;50.836;12.958;2022-10-12T01:58:11;98697.31;;;8.37;83.56
9746;BME280;4912;50.836;12.958;2022-10-12T02:00:54;98703.59;;;8.38;82.89
9746;BME280;4912;50.836;12.958;2022-10-12T02:03:35;98707.22;;;8.35;82.74
9746;BME280;4912;50.836;12.958;2022-10-12T02:06:12;98708.44;;;8.34;82.86
9746;BME280;4912;50.836;12.958;2022-10-12T02:08:49;98698.59;;;8.33;82.85
9746;BME280;4912;50.836;12.958;2022-10-12T02:11:26;98698.59;;;8.33;82.21
9746;BME280;4912;50.836;12.958;2022-10-12T02:14:00;98693.09;;;8.33;82.79
9746;BME280;4912;50.836;12.958;2022-10-12T02:16:40;98701.72;;;8.35;83.13
9746;BME280;4912;50.836;12.958;2022-10-12T02:19:17;98699.75;;;8.35;83.28
9746;BME280;4912;50.836;12.958;2022-10-12T02:21:52;98684.28;;;8.38;83.77
9746;BME280;4912;50.836;12.958;2022-10-12T02:24:26;98691.28;;;8.42;83.91
9746;BME280;4912;50.836;12.958;2022-10-12T02:26:59;98699.88;;;8.44;84.36
9746;BME280;4912;50.836;12.958;2022-10-12T02:29:35;98697.91;;;8.45;84.46
9746;BME280;4912;50.836;12.958;2022-10-12T02:32:10;98693.53;;;8.47;84.30
9746;BME280;4912;50.836;12.958;2022-10-12T02:34:53;98681.38;;;8.45;84.13
9746;BME280;4912;50.836;12.958;2022-10-12T02:37:31;98684.13;;;8.45;83.89
9746;BME280;4912;50.836;12.958;2022-10-12T02:40:09;98680.25;;;8.42;84.09
9746;BME280;4912;50.836;12.958;2022-10-12T02:42:47;98681.88;;;8.40;84.16
9746;BME280;4912;50.836;12.958;2022-10-12T02:45:39;98678.72;;;8.41;84.28
9746;BME280;4912;50.836;12.958;2022-10-12T02:48:14;98675.94;;;8.41;84.26
9746;BME280;4912;50.836;12.958;2022-10-12T02:50:50;98672.00;;;8.42;84.34
9746;BME280;4912;50.836;12.958;2022-10-12T02:53:24;98669.66;;;8.41;84.70
9746;BME280;4912;50.836;12.958;2022-10-12T02:56:00;98676.28;;;8.43;84.91
9746;BME280;4912;50.836;12.958;2022-10-12T02:58:33;98674.66;;;8.46;84.96
9746;BME280;4912;50.836;12.958;2022-10-12T03:01:03;98680.41;;;8.51;84.55
9746;BME280;4912;50.836;12.958;2022-10-12T03:03:34;98682.16;;;8.45;84.16
9746;BME280;4912;50.836;12.958;2022-10-12T03:06:08;98681.78;;;8.43;84.59
9746;BME280;4912;50.836;12.958;2022-10-12T03:08:38;98686.09;;;8.44;84.51
9746;BME280;4912;50.836;12.958;2022-10-12T03:11:11;98688.09;;;8.44;84.76
9746;BME280;4912;50.836;12.958;2022-10-12T03:13:42;98689.22;;;8.46;84.56
9746;BME280;4912;50.836;12.958;2022-10-12T03:16:12;98683.59;;;8.50;84.69
9746;BME280;4912;50.836;12.958;2022-10-12T03:18:42;98687.13;;;8.50;84.85
9746;BME280;4912;50.836;12.958;2022-10-12T03:21:17;98686.28;;;8.53;85.34
9746;BME280;4912;50.836;12.958;2022-10-12T03:23:48;98686.59;;;8.55;85.43
9746;BME280;4912;50.836;12.958;2022-10-12T03:26:18;98688.16;;;8.56;85.37
9746;BME280;4912;50.836;12.958;2022-10-12T03:28:49;98686.59;;;8.55;85.24
9746;BME280;4912;50.836;12.958;2022-10-12T03:31:19;98689.53;;;8.48;84.82
9746;BME280;4912;50.836;12.958;2022-10-12T03:33:49;98684.72;;;8.52;84.57
9746;BME280;4912;50.836;12.958;2022-10-12T03:36:22;98683.84;;;8.55;84.58
9746;BME280;4912;50.836;12.958;2022-10-12T03:38:55;98688.69;;;8.51;84.51
9746;BME280;4912;50.836;12.958;2022-10-12T03:41:25;98681.97;;;8.52;84.69
9746;BME280;4912;50.836;12.958;2022-10-12T03:43:55;98678.00;;;8.53;85.07
9746;BME280;4912;50.836;12.958;2022-10-12T03:46:25;98674.03;;;8.54;85.32
9746;BME280;4912;50.836;12.958;2022-10-12T03:48:55;98675.94;;;8.57;84.87
9746;BME280;4912;50.836;12.958;2022-10-12T03:51:28;98670.31;;;8.61;85.13
9746;BME280;4912;50.836;12.958;2022-10-12T03:53:58;98666.78;;;8.60;85.78
9746;BME280;4912;50.836;12.958;2022-10-12T03:56:28;98673.84;;;8.61;85.74
9746;BME280;4912;50.836;12.958;2022-10-12T03:58:58;98663.69;;;8.58;85.24
9746;BME280;4912;50.836;12.958;2022-10-12T04:01:28;98672.38;;;8.57;85.53
9746;BME280;4912;50.836;12.958;2022-10-12T04:03:59;98666.09;;;8.56;85.58
9746;BME280;4912;50.836;12.958;2022-10-12T04:06:32;98669.38;;;8.51;85.53
9746;BME280;4912;50.836;12.958;2022-10-12T04:09:02;98667.41;;;8.52;85.82
9746;BME280;4912;50.836;12.958;2022-10-12T04:11:32;98660.69;;;8.53;85.86
9746;BME280;4912;50.836;12.958;2022-10-12T04:14:02;98662.75;;;8.49;86.13
9746;BME280;4912;50.836;12.958;2022-10-12T04:16:32;98669.47;;;8.48;86.43
9746;BME280;4912;50.836;12.958;2022-10-12T04:19:05;98667.94;;;8.47;86.69
9746;BME280;4912;50.836;12.958;2022-10-12T04:21:38;98666.28;;;8.49;86.28
9746;BME280;4912;50.836;12.958;2022-10-12T04:24:09;98664.66;;;8.52;86.19
9746;BME280;4912;50.836;12.958;2022-10-12T04:26:39;98664.66;;;8.52;86.44
9746;BME280;4912;50.836;12.958;2022-10-12T04:29:12;98663.09;;;8.51;85.83
9746;BME280;4912;50.836;12.958;2022-10-12T04:31:42;98668.25;;;8.49;85.62
9746;BME280;4912;50.836;12.958;2022-10-12T04:34:12;98665.59;;;8.45;85.36
9746;BME280;4912;50.836;12.958;2022-10-12T04:36:47;98666.47;;;8.42;85.75
9746;BME280;4912;50.836;12.958;2022-10-12T04:39:17;98668.34;;;8.45;85.63
9746;BME280;4912;50.836;12.958;2022-10-12T04:41:47;98665.16;;;8.47;85.80
9746;BME280;4912;50.836;12.958;2022-10-12T04:44:17;98667.56;;;8.45;86.36
9746;BME280;4912;50.836;12.958;2022-10-12T04:46:47;98669.56;;;8.44;85.58
9746;BME280;4912;50.836;12.958;2022-10-12T04:49:17;98668.09;;;8.40;85.53
9746;BME280;4912;50.836;12.958;2022-10-12T04:51:50;98670.09;;;8.39;85.73
9746;BME280;4912;50.836;12.958;2022-10-12T04:54:20;98661.81;;;8.39;85.62
9746;BME280;4912;50.836;12.958;2022-10-12T04:56:50;98666.91;;;8.41;85.40
9746;BME280;4912;50.836;12.958;2022-10-12T04:59:20;98669.72;;;8.37;85.73
9746;BME280;4912;50.836;12.958;2022-10-12T05:01:50;98673.38;;;8.34;85.63
9746;BME280;4912;50.836;12.958;2022-10-12T05:04:21;98671.44;;;8.31;85.71
9746;BME280;4912;50.836;12.958;2022-10-12T05:06:53;98660.50;;;8.28;85.78
9746;BME280;4912;50.836;12.958;2022-10-12T05:09:24;98671.94;;;8.26;86.04
9746;BME280;4912;50.836;12.958;2022-10-12T05:11:54;98670.38;;;8.25;86.34
9746;BME280;4912;50.836;12.958;2022-10-12T05:14:24;98669.63;;;8.25;86.67
9746;BME280;4912;50.836;12.958;2022-10-12T05:17:01;98673.50;;;8.27;87.73
9746;BME280;4912;50.836;12.958;2022-10-12T05:19:31;98670.75;;;8.27;88.00
9746;BME280;4912;50.836;12.958;2022-10-12T05:22:07;98678.94;;;8.31;88.33
9746;BME280;4912;50.836;12.958;2022-10-12T05:24:37;98674.91;;;8.35;88.48
9746;BME280;4912;50.836;12.958;2022-10-12T05:27:07;98680.34;;;8.39;88.28
9746;BME280;4912;50.836;12.958;2022-10-12T05:29:37;98665.00;;;8.38;88.22
9746;BME280;4912;50.836;12.958;2022-10-12T05:32:07;98670.50;;;8.38;88.22
9746;BME280;4912;50.836;12.958;2022-10-12T05:34:37;98667.31;;;8.39;88.20
9746;BME280;4912;50.836;12.958;2022-10-12T05:37:10;98658.38;;;8.35;88.53
9746;BME280;4912;50.836;12.958;2022-10-12T05:39:40;98660.00;;;8.33;88.80
9746;BME280;4912;50.836;12.958;2022-10-12T05:42:11;98652.84;;;8.35;89.22
9746;BME280;4912;50.836;12.958;2022-10-12T05:44:42;98656.28;;;8.39;89.16
9746;BME280;4912;50.836;12.958;2022-10-12T05:47:12;98663.25;;;8.44;89.00
9746;BME280;4912;50.836;12.958;2022-10-12T05:49:42;98668.34;;;8.45;89.22
9746;BME280;4912;50.836;12.958;2022-10-12T05:52:15;98665.59;;;8.45;89.80
9746;BME280;4912;50.836;12.958;2022-10-12T05:54:45;98669.03;;;8.49;89.83
9746;BME280;4912;50.836;12.958;2022-10-12T05:57:16;98674.25;;;8.60;89.52
9746;BME280;4912;50.836;12.958;2022-10-12T05:59:47;98675.56;;;8.72;89.47
9746;BME280;4912;50.836;12.958;2022-10-12T06:02:17;98679.66;;;8.80;88.78
9746;BME280;4912;50.836;12.958;2022-10-12T06:04:48;98675.97;;;8.86;88.26
9746;BME280;4912;50.836;12.958;2022-10-12T06:07:20;98674.09;;;8.96;88.14
9746;BME280;4912;50.836;12.958;2022-10-12T06:09:51;98677.03;;;9.05;88.21
9746;BME280;4912;50.836;12.958;2022-10-12T06:12:21;98683.13;;;9.13;88.18
9746;BME280;4912;50.836;12.958;2022-10-12T06:14:52;98679.53;;;9.28;87.22
9746;BME280;4912;50.836;12.958;2022-10-12T06:17:22;98685.53;;;9.39;87.08
9746;BME280;4912;50.836;12.958;2022-10-12T06:19:52;98682.34;;;9.54;86.87
9746;BME280;4912;50.836;12.958;2022-10-12T06:22:26;98690.44;;;9.73;86.95
9746;BME280;4912;50.836;12.958;2022-10-12T06:24:56;98693.00;;;9.80;87.51
9746;BME280;4912;50.836;12.958;2022-10-12T06:27:26;98684.38;;;9.91;87.69
9746;BME280;4912;50.836;12.958;2022-10-12T06:29:56;98686.78;;;10.02;87.28
9746;BME280;4912;50.836;12.958;2022-10-12T06:32:27;98679.84;;;10.10;87.74
9746;BME280;4912;50.836;12.958;2022-10-12T06:34:57;98676.88;;;10.17;87.95
9746;BME280;4912;50.836;12.958;2022-10-12T06:37:30;98674.97;;;10.26;87.37
9746;BME280;4912;50.836;12.958;2022-10-12T06:40:16;98677.53;;;10.34;87.18
9746;BME280;4912;50.836;12.958;2022-10-12T06:42:47;98674.84;;;10.43;87.20
9746;BME280;4912;50.836;12.958;2022-10-12T06:45:24;98682.81;;;10.53;86.64
9746;BME280;4912;50.836;12.958;2022-10-12T06:47:54;98681.53;;;10.67;85.86
9746;BME280;4912;50.836;12.958;2022-10-12T06:50:24;98683.50;;;10.79;85.76
9746;BME280;4912;50.836;12.958;2022-10-12T06:52:58;98686.66;;;10.90;85.59
9746;BME280;4912;50.836;12.958;2022-10-12T06:55:28;98684.19;;;11.05;84.76
9746;BME280;4912;50.836;12.958;2022-10-12T06:57:58;98680.69;;;11.14;85.06
9746;BME280;4912;50.836;12.958;2022-10-12T07:00:28;98677.88;;;11.26;85.08
9746;BME280;4912;50.836;12.958;2022-10-12T07:02:59;98681.19;;;11.43;84.19
9746;BME280;4912;50.836;12.958;2022-10-12T07:05:29;98679.97;;;11.44;84.51
9746;BME280;4912;50.836;12.958;2022-10-12T07:08:02;98673.06;;;11.70;83.73
9746;BME280;4912;50.836;12.958;2022-10-12T07:10:32;98678.59;;;11.92;83.21
9746;BME280;4912;50.836;12.958;2022-10-12T07:13:02;98676.75;;;11.98;76.67
9746;BME280;4912;50.836;12.958;2022-10-12T07:15:32;98675.50;;;12.30;75.39
9746;BME280;4912;50.836;12.958;2022-10-12T07:18:02;98680.66;;;12.59;74.28
9746;BME280;4912;50.836;12.958;2022-10-12T07:20:33;98680.53;;;12.90;72.03
9746;BME280;4912;50.836;12.958;2022-10-12T07:23:08;98678.53;;;13.27;69.54
9746;BME280;4912;50.836;12.958;2022-10-12T07:25:39;98682.47;;;13.71;66.85
9746;BME280;4912;50.836;12.958;2022-10-12T07:28:09;98686.84;;;13.54;66.44
9746;BME280;4912;50.836;12.958;2022-10-12T07:30:39;98690.84;;;13.44;65.90
9746;BME280;4912;50.836;12.958;2022-10-12T07:33:09;98682.22;;;13.33;64.89
9746;BME280;4912;50.836;12.958;2022-10-12T07:35:39;98689.72;;;13.69;64.45
9746;BME280;4912;50.836;12.958;2022-10-12T07:38:32;98690.66;;;14.17;61.77
9746;BME280;4912;50.836;12.958;2022-10-12T07:41:03;98679.41;;;14.44;59.51
9746;BME280;4912;50.836;12.958;2022-10-12T07:43:33;98686.09;;;14.38;59.80
9746;BME280;4912;50.836;12.958;2022-10-12T07:46:05;98677.19;;;14.15;60.03
9746;BME280;4912;50.836;12.958;2022-10-12T07:48:35;98681.72;;;14.13;60.29
9746;BME280;4912;50.836;12.958;2022-10-12T07:51:14;98676.91;;;14.13;60.13
9746;BME280;4912;50.836;12.958;2022-10-12T07:53:47;98669.03;;;14.12;59.61
9746;BME280;4912;50.836;12.958;2022-10-12T07:56:17;98669.69;;;14.63;59.24
9746;BME280;4912;50.836;12.958;2022-10-12T07:58:49;98669.97;;;15.28;56.91
9746;BME280;4912;50.836;12.958;2022-10-12T08:01:22;98672.28;;;15.44;55.82
9746;BME280;4912;50.836;12.958;2022-10-12T08:03:56;98667.00;;;15.46;55.70
9746;BME280;4912;50.836;12.958;2022-10-12T08:06:30;98670.66;;;15.37;55.47
9746;BME280;4912;50.836;12.958;2022-10-12T08:09:04;98667.38;;;15.97;54.08
9746;BME280;4912;50.836;12.958;2022-10-12T08:11:37;98661.91;;;16.93;51.28
9746;BME280;4912;50.836;12.958;2022-10-12T08:14:12;98669.31;;;17.68;48.32
9746;BME280;4912;50.836;12.958;2022-10-12T08:16:43;98661.25;;;18.50;46.37
9746;BME280;4912;50.836;12.958;2022-10-12T08:19:13;98663.22;;;18.80;46.03
9746;BME280;4912;50.836;12.958;2022-10-12T08:21:44;98659.16;;;19.85;43.66
9746;BME280;4912;50.836;12.958;2022-10-12T08:24:17;98659.38;;;20.54;40.47
9746;BME280;4912;50.836;12.958;2022-10-12T08:26:47;98654.66;;;21.78;39.08
9746;BME280;4912;50.836;12.958;2022-10-12T08:29:17;98662.72;;;22.76;36.76
9746;BME280;4912;50.836;12.958;2022-10-12T08:31:48;98663.13;;;23.48;34.93
9746;BME280;4912;50.836;12.958;2022-10-12T08:34:20;98647.94;;;24.15;33.02
9746;BME280;4912;50.836;12.958;2022-10-12T08:36:51;98652.16;;;24.79;31.59
9746;BME280;4912;50.836;12.958;2022-10-12T08:39:24;98650.34;;;25.16;31.57
9746;BME280;4912;50.836;12.958;2022-10-12T08:42:05;98647.88;;;25.46;31.89
9746;BME280;4912;50.836;12.958;2022-10-12T08:44:51;98648.16;;;25.69;30.27
9746;BME280;4912;50.836;12.958;2022-10-12T08:47:31;98643.88;;;26.17;30.14
9746;BME280;4912;50.836;12.958;2022-10-12T08:50:10;98643.28;;;25.90;30.10
9746;BME280;4912;50.836;12.958;2022-10-12T08:52:50;98640.22;;;25.67;29.97
9746;BME280;4912;50.836;12.958;2022-10-12T08:55:33;98631.72;;;25.88;29.65
9746;BME280;4912;50.836;12.958;2022-10-12T08:58:13;98632.63;;;26.25;29.08
9746;BME280;4912;50.836;12.958;2022-10-12T09:00:48;98628.59;;;26.20;29.59
9746;BME280;4912;50.836;12.958;2022-10-12T09:03:32;98622.16;;;26.20;29.05
9746;BME280;4912;50.836;12.958;2022-10-12T09:06:12;98629.09;;;25.90;30.33
9746;BME280;4912;50.836;12.958;2022-10-12T09:09:02;98639.19;;;24.71;30.70
9746;BME280;4912;50.836;12.958;2022-10-12T09:12:00;98644.56;;;23.52;32.28
9746;BME280;4912;50.836;12.958;2022-10-12T09:14:38;98646.59;;;23.33;33.71
9746;BME280;4912;50.836;12.958;2022-10-12T09:17:22;98639.31;;;22.81;34.50
9746;BME280;4912;50.836;12.958;2022-10-12T09:20:01;98638.09;;;22.53;34.67
9746;BME280;4912;50.836;12.958;2022-10-12T09:22:34;98637.81;;;22.32;34.51
9746;BME280;4912;50.836;12.958;2022-10-12T09:25:11;98626.84;;;21.93;34.95
9746;BME280;4912;50.836;12.958;2022-10-12T09:27:45;98632.66;;;22.06;35.81
9746;BME280;4912;50.836;12.958;2022-10-12T09:30:18;98637.66;;;21.89;36.18
9746;BME280;4912;50.836;12.958;2022-10-12T09:32:58;98636.44;;;21.49;36.30
9746;BME280;4912;50.836;12.958;2022-10-12T09:35:34;98629.44;;;21.26;37.04
9746;BME280;4912;50.836;12.958;2022-10-12T09:38:07;98629.47;;;21.09;37.25
9746;BME280;4912;50.836;12.958;2022-10-12T09:40:39;98624.97;;;20.89;37.94
9746;BME280;4912;50.836;12.958;2022-10-12T09:43:13;98629.28;;;21.01;37.75
9746;BME280;4912;50.836;12.958;2022-10-12T09:45:44;98622.78;;;21.23;38.05
9746;BME280;4912;50.836;12.958;2022-10-12T09:48:20;98624.56;;;21.61;37.91
9746;BME280;4912;50.836;12.958;2022-10-12T09:50:54;98616.56;;;21.71;37.40
9746;BME280;4912;50.836;12.958;2022-10-12T09:53:28;98617.03;;;21.40;38.20
9746;BME280;4912;50.836;12.958;2022-10-12T09:56:04;98622.78;;;21.23;38.82
9746;BME280;4912;50.836;12.958;2022-10-12T09:58:50;98614.28;;;21.29;38.60
9746;BME280;4912;50.836;12.958;2022-10-12T10:01:24;98612.28;;;21.23;38.70
9746;BME280;4912;50.836;12.958;2022-10-12T10:04:14;98621.75;;;21.26;38.72
9746;BME280;4912;50.836;12.958;2022-10-12T10:06:46;98610.63;;;21.75;38.76
9746;BME280;4912;50.836;12.958;2022-10-12T10:09:26;98605.41;;;22.38;37.78
9746;BME280;4912;50.836;12.958;2022-10-12T10:12:11;98609.31;;;23.03;37.04
9746;BME280;4912;50.836;12.958;2022-10-12T10:14:46;98612.13;;;23.03;35.85
9746;BME280;4912;50.836;12.958;2022-10-12T10:17:23;98612.09;;;23.21;35.57
9746;BME280;4912;50.836;12.958;2022-10-12T10:19:56;98597.25;;;23.72;35.44
9746;BME280;4912;50.836;12.958;2022-10-12T10:22:28;98601.72;;;23.80;34.47
9746;BME280;4912;50.836;12.958;2022-10-12T10:24:59;98600.06;;;23.72;34.86
9746;BME280;4912;50.836;12.958;2022-10-12T10:27:32;98596.53;;;23.52;35.62
9746;BME280;4912;50.836;12.958;2022-10-12T10:30:19;98596.81;;;23.67;36.13
9746;BME280;4912;50.836;12.958;2022-10-12T10:33:11;98598.72;;;23.59;35.10
9746;BME280;4912;50.836;12.958;2022-10-12T10:35:57;98600.13;;;23.85;35.09
9746;BME280;4912;50.836;12.958;2022-10-12T10:38:32;98598.53;;;24.16;35.18
9746;BME280;4912;50.836;12.958;2022-10-12T10:41:15;98593.53;;;24.74;34.88
9746;BME280;4912;50.836;12.958;2022-10-12T10:43:47;98585.16;;;24.82;34.73
9746;BME280;4912;50.836;12.958;2022-10-12T10:46:25;98581.56;;;24.95;33.68
9746;BME280;4912;50.836;12.958;2022-10-12T10:48:59;98591.34;;;25.41;33.21
9746;BME280;4912;50.836;12.958;2022-10-12T10:51:44;98589.09;;;25.81;31.22
9746;BME280;4912;50.836;12.958;2022-10-12T10:54:25;98590.81;;;26.25;31.02
9746;BME280;4912;50.836;12.958;2022-10-12T10:57:03;98584.47;;;26.76;29.72
9746;BME280;4912;50.836;12.958;2022-10-12T10:59:48;98589.00;;;27.81;28.76
9746;BME280;4912;50.836;12.958;2022-10-12T11:02:29;98589.34;;;28.54;27.74
9746;BME280;4912;50.836;12.958;2022-10-12T11:05:06;98581.66;;;28.86;27.59
9746;BME280;4912;50.836;12.958;2022-10-12T11:07:44;98575.06;;;29.81;26.42
9746;BME280;4912;50.836;12.958;2022-10-12T11:10:21;98571.13;;;30.78;24.74
9746;BME280;4912;50.836;12.958;2022-10-12T11:13:01;98565.03;;;31.25;23.93
9746;BME280;4912;50.836;12.958;2022-10-12T11:15:38;98567.31;;;31.90;22.98
9746;BME280;4912;50.836;12.958;2022-10-12T11:18:19;98567.50;;;32.67;22.07
9746;BME280;4912;50.836;12.958;2022-10-12T11:20:55;98555.00;;;33.51;21.02
9746;BME280;4912;50.836;12.958;2022-10-12T11:23:32;98548.19;;;34.18;21.35
9746;BME280;4912;50.836;12.958;2022-10-12T11:26:21;98545.91;;;33.05;22.53
9746;BME280;4912;50.836;12.958;2022-10-12T11:28:56;98528.38;;;33.60;21.35
9746;BME280;4912;50.836;12.958;2022-10-12T11:31:30;98538.78;;;33.75;19.94
9746;BME280;4912;50.836;12.958;2022-10-12T11:34:22;98545.91;;;34.47;20.15
9746;BME280;4912;50.836;12.958;2022-10-12T11:36:54;98542.38;;;34.91;18.88
9746;BME280;4912;50.836;12.958;2022-10-12T11:39:47;98538.66;;;35.57;18.34
9746;BME280;4912;50.836;12.958;2022-10-12T11:42:26;98532.78;;;35.55;18.35
9746;BME280;4912;50.836;12.958;2022-10-12T11:45:01;98534.81;;;35.64;18.43
9746;BME280;4912;50.836;12.958;2022-10-12T11:47:37;98526.03;;;36.08;18.10
9746;BME280;4912;50.836;12.958;2022-10-12T11:50:23;98531.84;;;36.82;17.23
9746;BME280;4912;50.836;12.958;2022-10-12T11:53:00;98525.69;;;37.39;17.69
9746;BME280;4912;50.836;12.958;2022-10-12T11:58:33;98518.16;;;38.14;17.07
9746;BME280;4912;50.836;12.958;2022-10-12T12:04:29;98511.06;;;38.58;15.89
9746;BME280;4912;50.836;12.958;2022-10-12T12:07:45;98514.53;;;38.13;16.08
9746;BME280;4912;50.836;12.958;2022-10-12T12:10:49;98507.66;;;36.87;17.54
9746;BME280;4912;50.836;12.958;2022-10-12T12:13:33;98498.22;;;36.01;17.85
9746;BME280;4912;50.836;12.958;2022-10-12T12:16:31;98503.72;;;37.20;16.91
9746;BME280;4912;50.836;12.958;2022-10-12T12:19:35;98501.84;;;35.55;18.29
9746;BME280;4912;50.836;12.958;2022-10-12T12:22:28;98509.28;;;34.48;18.95
9746;BME280;4912;50.836;12.958;2022-10-12T12:25:14;98498.03;;;34.52;19.79
9746;BME280;4912;50.836;12.958;2022-10-12T12:27:49;98490.13;;;35.75;18.89
9746;BME280;4912;50.836;12.958;2022-10-12T12:30:36;98496.75;;;36.49;17.83
9746;BME280;4912;50.836;12.958;2022-10-12T12:33:25;98497.44;;;34.75;18.99
9746;BME280;4912;50.836;12.958;2022-10-12T12:35:59;98497.16;;;32.47;21.04
9746;BME280;4912;50.836;12.958;2022-10-12T12:38:32;98499.47;;;31.74;21.64
9746;BME280;4912;50.836;12.958;2022-10-12T12:41:10;98490.34;;;33.10;20.59
9746;BME280;4912;50.836;12.958;2022-10-12T12:43:58;98493.06;;;34.74;19.19
9746;BME280;4912;50.836;12.958;2022-10-12T12:50:31;98483.69;;;33.57;19.94
9746;BME280;4912;50.836;12.958;2022-10-12T12:53:06;98481.44;;;34.08;19.79
9746;BME280;4912;50.836;12.958;2022-10-12T12:56:00;98487.25;;;34.41;18.69
9746;BME280;4912;50.836;12.958;2022-10-12T12:58:44;98478.38;;;35.03;18.35
9746;BME280;4912;50.836;12.958;2022-10-12T13:01:52;98471.44;;;35.87;17.78
9746;BME280;4912;50.836;12.958;2022-10-12T13:04:51;98476.06;;;36.78;17.58
9746;BME280;4912;50.836;12.958;2022-10-12T13:07:52;98468.56;;;37.37;17.47
9746;BME280;4912;50.836;12.958;2022-10-12T13:10:45;98474.28;;;37.76;16.83
9746;BME280;4912;50.836;12.958;2022-10-12T13:13:35;98463.47;;;37.77;15.90
9746;BME280;4912;50.836;12.958;2022-10-12T13:16:32;98459.75;;;37.74;16.11
9746;BME280;4912;50.836;12.958;2022-10-12T13:19:42;98460.53;;;37.22;16.19
9746;BME280;4912;50.836;12.958;2022-10-12T13:22:19;98452.50;;;36.44;17.18
9746;BME280;4912;50.836;12.958;2022-10-12T13:24:59;98447.66;;;37.11;16.93
9746;BME280;4912;50.836;12.958;2022-10-12T13:27:37;98444.22;;;36.50;17.12
9746;BME280;4912;50.836;12.958;2022-10-12T13:30:20;98449.47;;;36.05;17.71
9746;BME280;4912;50.836;12.958;2022-10-12T13:32:56;98437.63;;;35.64;18.67
9746;BME280;4912;50.836;12.958;2022-10-12T13:35:33;98437.53;;;35.51;19.11
9746;BME280;4912;50.836;12.958;2022-10-12T13:38:18;98439.94;;;34.75;19.11
9746;BME280;4912;50.836;12.958;2022-10-12T13:40:54;98442.25;;;32.79;20.11
9746;BME280;4912;50.836;12.958;2022-10-12T13:43:33;98444.25;;;31.54;21.66
9746;BME280;4912;50.836;12.958;2022-10-12T13:46:12;98441.88;;;29.84;24.03
9746;BME280;4912;50.836;12.958;2022-10-12T13:48:47;98439.78;;;29.42;24.96
9746;BME280;4912;50.836;12.958;2022-10-12T13:51:28;98436.78;;;28.83;25.51
9746;BME280;4912;50.836;12.958;2022-10-12T13:53:59;98445.91;;;28.34;26.10
9746;BME280;4912;50.836;12.958;2022-10-12T13:56:29;98436.59;;;27.55;26.33
9746;BME280;4912;50.836;12.958;2022-10-12T13:59:01;98441.50;;;26.58;28.10
9746;BME280;4912;50.836;12.958;2022-10-12T14:01:49;98440.31;;;26.02;29.07
9746;BME280;4912;50.836;12.958;2022-10-12T14:04:26;98433.06;;;25.65;30.26
9746;BME280;4912;50.836;12.958;2022-10-12T14:07:00;98437.16;;;25.36;31.46
9746;BME280;4912;50.836;12.958;2022-10-12T14:09:39;98443.81;;;25.18;33.15
9746;BME280;4912;50.836;12.958;2022-10-12T14:12:13;98430.06;;;25.01;33.44
9746;BME280;4912;50.836;12.958;2022-10-12T14:14:51;98425.69;;;24.79;33.18
9746;BME280;4912;50.836;12.958;2022-10-12T14:17:24;98427.06;;;24.52;34.30